Time;durP1;ratioP1;P1;durP2;ratioP2;P2;SDS_P1;SDS_P2;PMS_P1;PMS_P2;Temp;Humidity;BMP_temperature;BMP_pressure;BME280_temperature;BME280_humidity;BME280_pressure;Samples;Min_cycle;Max_cycle;Signal;HPM_P1;HPM_P2
2021/03/10 00:01:42;;;;;;;71.68;36.05;;;3.80;99.90;;;;;;5021500;28;20414;-69
2021/03/10 00:04:26;;;;;;;73.03;39.38;;;3.70;99.90;;;;;;5016451;28;20044;-70
2021/03/10 00:07:11;;;;;;;72.10;38.25;;;3.80;99.90;;;;;;5021406;28;20541;-70
2021/03/10 00:09:55;;;;;;;83.10;41.92;;;3.80;99.90;;;;;;5021941;28;20041;-71
2021/03/10 00:12:41;;;;;;;81.38;40.95;;;3.90;99.90;;;;;;5021323;28;20513;-70
2021/03/10 00:15:25;;;;;;;78.35;39.40;;;4.00;99.90;;;;;;5009134;28;20127;-71
2021/03/10 00:18:09;;;;;;;67.80;36.33;;;3.90;99.90;;;;;;5029745;28;20080;-71
2021/03/10 00:20:53;;;;;;;70.32;37.05;;;3.90;99.90;;;;;;5022294;28;20111;-71
2021/03/10 00:23:38;;;;;;;65.55;37.53;;;3.90;99.90;;;;;;5018094;28;20622;-70
2021/03/10 00:26:22;;;;;;;68.47;35.97;;;3.80;99.90;;;;;;5015234;28;20048;-70
2021/03/10 00:29:06;;;;;;;68.53;36.83;;;3.80;99.90;;;;;;5019331;28;20044;-70
2021/03/10 00:31:51;;;;;;;77.70;40.10;;;3.70;99.90;;;;;;5025830;28;20040;-71
2021/03/10 00:34:35;;;;;;;70.57;37.60;;;3.70;99.90;;;;;;5022611;28;20040;-70
2021/03/10 00:37:20;;;;;;;84.60;39.50;;;3.80;99.90;;;;;;5029030;28;20500;-70
2021/03/10 00:40:05;;;;;;;65.30;35.80;;;3.90;99.90;;;;;;5020605;28;20052;-70
2021/03/10 00:42:49;;;;;;;73.93;37.50;;;3.80;99.90;;;;;;5019512;28;20087;-70
2021/03/10 00:45:33;;;;;;;68.10;36.75;;;3.70;99.90;;;;;;5031554;28;20124;-70
2021/03/10 00:48:19;;;;;;;76.43;41.38;;;3.70;99.90;;;;;;5021644;28;20454;-70
2021/03/10 00:51:03;;;;;;;74.35;37.42;;;3.80;99.90;;;;;;5015543;28;20100;-70
2021/03/10 00:53:47;;;;;;;76.70;38.30;;;3.80;99.90;;;;;;5019369;28;20049;-70
2021/03/10 00:56:31;;;;;;;76.90;41.55;;;3.80;99.90;;;;;;5024547;28;20057;-70
2021/03/10 00:59:16;;;;;;;74.50;40.92;;;3.90;99.90;;;;;;5021359;28;20072;-70
2021/03/10 01:02:00;;;;;;;80.75;39.85;;;3.90;99.90;;;;;;5023602;28;20119;-70
2021/03/10 01:04:45;;;;;;;76.57;39.45;;;3.90;99.90;;;;;;5026388;28;20040;-71
2021/03/10 01:07:28;;;;;;;74.70;38.75;;;3.80;99.90;;;;;;5024862;28;20092;-71
2021/03/10 01:10:13;;;;;;;70.25;38.13;;;3.80;99.90;;;;;;5029641;28;20067;-70
2021/03/10 01:12:57;;;;;;;68.78;37.40;;;3.80;99.90;;;;;;5025036;28;20060;-70
2021/03/10 01:15:41;;;;;;;75.55;39.20;;;3.70;99.90;;;;;;5031315;28;20057;-71
2021/03/10 01:18:25;;;;;;;75.97;40.63;;;3.70;99.90;;;;;;5020544;28;20461;-70
2021/03/10 01:21:10;;;;;;;73.75;38.78;;;3.80;99.90;;;;;;5027391;28;20163;-71
2021/03/10 01:23:54;;;;;;;79.35;40.70;;;3.80;99.90;;;;;;5011383;28;20145;-70
2021/03/10 01:26:38;;;;;;;75.10;38.28;;;3.90;99.90;;;;;;5028207;28;20095;-70
2021/03/10 01:29:22;;;;;;;67.00;36.92;;;3.90;99.90;;;;;;5027268;28;20425;-70
2021/03/10 01:32:06;;;;;;;75.78;41.70;;;3.80;99.90;;;;;;5027512;28;20068;-70
2021/03/10 01:34:51;;;;;;;76.18;40.78;;;3.80;99.90;;;;;;5021109;28;20068;-70
2021/03/10 01:37:35;;;;;;;76.55;41.00;;;3.80;99.90;;;;;;5024865;28;20060;-70
2021/03/10 01:40:20;;;;;;;74.03;39.60;;;3.80;99.90;;;;;;5019857;28;20049;-70
2021/03/10 01:43:06;;;;;;;80.53;41.05;;;3.70;99.90;;;;;;5021308;28;20133;-70
2021/03/10 01:45:50;;;;;;;76.07;39.60;;;3.70;99.90;;;;;;5023239;28;20096;-70
2021/03/10 01:48:35;;;;;;;71.65;37.58;;;3.70;99.90;;;;;;5022515;28;20141;-70
2021/03/10 01:51:20;;;;;;;77.97;41.00;;;3.80;99.90;;;;;;5017985;28;20044;-70
2021/03/10 01:54:04;;;;;;;73.90;39.78;;;3.70;99.90;;;;;;5015967;28;20056;-70
2021/03/10 01:56:49;;;;;;;78.13;40.55;;;3.80;99.90;;;;;;5018879;28;20052;-71
2021/03/10 01:59:35;;;;;;;82.85;42.30;;;3.80;99.90;;;;;;5020343;28;20119;-70
2021/03/10 02:02:19;;;;;;;67.97;35.83;;;3.80;99.90;;;;;;5020348;28;20057;-70
2021/03/10 02:05:04;;;;;;;80.63;40.05;;;3.80;99.90;;;;;;5019554;28;20040;-70
2021/03/10 02:08:09;;;;;;;75.97;40.53;;;3.80;99.90;;;;;;5024779;28;20044;-70
2021/03/10 02:11:22;;;;;;;79.93;42.05;;;3.60;99.90;;;;;;5021640;28;20390;-70
2021/03/10 02:14:24;;;;;;;69.72;38.95;;;3.60;99.90;;;;;;5015868;28;20156;-70
2021/03/10 02:17:13;;;;;;;69.38;37.33;;;3.50;99.90;;;;;;5023146;28;20056;-70
2021/03/10 02:20:19;;;;;;;67.40;37.03;;;3.50;99.90;;;;;;5022631;28;20454;-70
2021/03/10 02:23:07;;;;;;;66.40;36.40;;;3.50;99.90;;;;;;5017974;28;20048;-70
2021/03/10 02:26:30;;;;;;;74.20;36.50;;;3.30;99.90;;;;;;5024030;28;20099;-70
2021/03/10 02:29:16;;;;;;;70.03;37.55;;;3.30;99.90;;;;;;5020006;28;20120;-70
2021/03/10 02:32:01;;;;;;;71.57;37.40;;;3.30;99.90;;;;;;5024854;28;20092;-70
2021/03/10 02:34:45;;;;;;;72.90;38.55;;;3.30;99.90;;;;;;5021726;28;20057;-69
2021/03/10 02:37:31;;;;;;;70.40;37.72;;;3.40;99.90;;;;;;5017370;28;20194;-70
2021/03/10 02:40:16;;;;;;;79.20;41.78;;;3.30;99.90;;;;;;5018538;28;20099;-70
2021/03/10 02:43:01;;;;;;;69.15;38.05;;;3.40;99.90;;;;;;5026751;28;20041;-70
2021/03/10 02:45:46;;;;;;;80.43;39.50;;;3.40;99.90;;;;;;5013725;28;20184;-70
2021/03/10 02:48:32;;;;;;;73.47;37.60;;;3.40;99.90;;;;;;5015530;28;20106;-70
2021/03/10 02:51:17;;;;;;;75.88;39.45;;;3.40;99.90;;;;;;5025437;28;20040;-70
2021/03/10 02:54:03;;;;;;;78.40;39.53;;;3.40;99.90;;;;;;5024158;28;20048;-70
2021/03/10 02:56:47;;;;;;;74.70;38.53;;;3.30;99.90;;;;;;5024284;28;20110;-70
2021/03/10 02:59:32;;;;;;;65.05;35.60;;;3.30;99.90;;;;;;5013766;28;20095;-70
2021/03/10 03:02:16;;;;;;;72.95;36.80;;;3.30;99.90;;;;;;5013079;28;20053;-70
2021/03/10 03:05:02;;;;;;;70.28;36.20;;;3.20;99.90;;;;;;5018414;28;20387;-70
2021/03/10 03:07:48;;;;;;;66.82;35.63;;;3.20;99.90;;;;;;5015736;28;20036;-71
2021/03/10 03:10:36;;;;;;;65.07;33.45;;;3.20;99.90;;;;;;5024150;28;20117;-70
2021/03/10 03:13:22;;;;;;;72.05;37.97;;;3.30;99.90;;;;;;5011728;28;20048;-70
2021/03/10 03:16:07;;;;;;;60.50;34.10;;;3.30;99.90;;;;;;5021377;28;20053;-70
2021/03/10 03:18:52;;;;;;;66.82;36.33;;;3.30;99.90;;;;;;5025662;28;20482;-70
2021/03/10 03:21:36;;;;;;;59.75;32.63;;;3.40;99.90;;;;;;5015375;28;20099;-70
2021/03/10 03:24:21;;;;;;;60.28;33.13;;;3.50;99.90;;;;;;5020978;28;20043;-70
2021/03/10 03:27:06;;;;;;;63.22;35.20;;;3.50;99.90;;;;;;5021528;28;20045;-70
2021/03/10 03:29:59;;;;;;;62.97;33.85;;;3.50;99.90;;;;;;5011471;28;20040;-70
2021/03/10 03:32:45;;;;;;;63.17;33.85;;;3.50;99.90;;;;;;5015226;28;20145;-70
2021/03/10 03:35:29;;;;;;;64.82;34.53;;;3.40;99.90;;;;;;5024483;28;20540;-71
2021/03/10 03:38:14;;;;;;;72.40;37.50;;;3.40;99.90;;;;;;5023682;28;20068;-69
2021/03/10 03:40:59;;;;;;;66.45;37.22;;;3.40;99.90;;;;;;5013628;28;20491;-70
2021/03/10 03:43:43;;;;;;;59.53;34.95;;;3.50;99.90;;;;;;5022272;28;20049;-70
2021/03/10 03:46:27;;;;;;;68.20;37.92;;;3.50;99.90;;;;;;5015591;28;20399;-70
2021/03/10 03:49:14;;;;;;;71.10;38.47;;;3.50;99.90;;;;;;5019425;28;20049;-70
2021/03/10 03:51:58;;;;;;;78.43;40.45;;;3.50;99.90;;;;;;5019361;28;20049;-70
2021/03/10 03:54:42;;;;;;;64.80;34.20;;;3.50;99.90;;;;;;5021677;28;20132;-70
2021/03/10 03:57:26;;;;;;;70.88;36.30;;;3.40;99.90;;;;;;5025054;28;20140;-70
2021/03/10 04:00:25;;;;;;;78.07;38.38;;;3.30;99.90;;;;;;5022049;28;20290;-70
2021/03/10 04:03:10;;;;;;;77.53;39.30;;;3.40;99.90;;;;;;5022532;28;20131;-70
2021/03/10 04:05:54;;;;;;;78.63;40.55;;;3.40;99.90;;;;;;5024997;28;20061;-70
2021/03/10 04:08:38;;;;;;;71.63;38.08;;;3.30;99.90;;;;;;5026320;28;20459;-70
2021/03/10 04:11:23;;;;;;;76.57;38.55;;;3.30;99.90;;;;;;5027071;28;20527;-70
2021/03/10 04:14:07;;;;;;;84.18;40.65;;;3.30;99.90;;;;;;5017119;28;20060;-70
2021/03/10 04:16:51;;;;;;;80.22;40.55;;;3.20;99.90;;;;;;5020484;28;20121;-70
2021/03/10 04:19:35;;;;;;;71.50;35.83;;;3.20;99.90;;;;;;5016241;28;20410;-69
2021/03/10 04:22:19;;;;;;;82.63;40.65;;;3.20;99.90;;;;;;5027915;28;20052;-70
2021/03/10 04:25:05;;;;;;;68.30;36.08;;;3.20;99.90;;;;;;5028653;28;20044;-71
2021/03/10 04:27:50;;;;;;;83.75;40.05;;;3.10;99.90;;;;;;5021866;28;20116;-70
2021/03/10 04:30:34;;;;;;;73.72;37.55;;;3.10;99.90;;;;;;5015313;28;20072;-70
2021/03/10 04:33:18;;;;;;;72.70;38.72;;;3.10;99.90;;;;;;5026686;28;20095;-70
2021/03/10 04:36:03;;;;;;;76.28;38.72;;;3.00;99.90;;;;;;5020620;28;20115;-70
2021/03/10 04:38:47;;;;;;;72.05;36.47;;;3.00;99.90;;;;;;5020634;28;20168;-70
2021/03/10 04:41:32;;;;;;;78.40;39.67;;;3.00;99.90;;;;;;5028295;28;20056;-70
2021/03/10 04:44:16;;;;;;;84.72;42.45;;;3.00;99.90;;;;;;5018190;28;20052;-70
2021/03/10 04:47:00;;;;;;;69.38;36.70;;;3.10;99.90;;;;;;5030036;28;20398;-70
2021/03/10 04:49:44;;;;;;;80.57;41.97;;;3.10;99.90;;;;;;5016222;28;20569;-70
2021/03/10 04:52:28;;;;;;;70.18;36.97;;;3.10;99.90;;;;;;5024205;28;20052;-70
2021/03/10 04:55:12;;;;;;;79.07;39.75;;;3.10;99.90;;;;;;5018575;28;20100;-70
2021/03/10 04:57:56;;;;;;;74.78;40.10;;;3.10;99.90;;;;;;5027539;28;20041;-70
2021/03/10 05:00:41;;;;;;;82.85;41.30;;;3.10;99.90;;;;;;5020680;28;20514;-70
2021/03/10 05:03:25;;;;;;;81.15;41.58;;;3.10;99.90;;;;;;5027557;28;20586;-70
2021/03/10 05:06:10;;;;;;;88.35;41.40;;;3.20;99.90;;;;;;5025710;28;20514;-70
2021/03/10 05:08:55;;;;;;;79.55;39.45;;;3.20;99.90;;;;;;5028974;28;20115;-70
2021/03/10 05:11:39;;;;;;;77.72;40.58;;;3.20;99.90;;;;;;5016925;28;20055;-70
2021/03/10 05:14:23;;;;;;;79.47;40.35;;;3.20;99.90;;;;;;5026411;28;20091;-70
2021/03/10 05:17:07;;;;;;;70.45;37.90;;;3.20;99.90;;;;;;5024239;28;20473;-70
2021/03/10 05:19:58;;;;;;;68.05;36.35;;;3.20;99.90;;;;;;5021331;28;20045;-70
2021/03/10 05:22:42;;;;;;;87.75;41.83;;;3.20;99.90;;;;;;5016517;28;20060;-69
2021/03/10 05:25:27;;;;;;;88.30;39.85;;;3.10;99.90;;;;;;5026174;28;20059;-70
2021/03/10 05:28:11;;;;;;;84.50;42.05;;;3.10;99.90;;;;;;5014799;28;20143;-70
2021/03/10 05:30:56;;;;;;;85.68;40.22;;;3.10;99.90;;;;;;5012948;28;20104;-70
2021/03/10 05:33:40;;;;;;;73.18;36.78;;;3.00;99.90;;;;;;5026730;28;20087;-71
2021/03/10 05:36:24;;;;;;;72.95;35.17;;;2.90;99.90;;;;;;5015784;28;20540;-70
2021/03/10 05:39:08;;;;;;;86.88;42.33;;;2.80;99.90;;;;;;5020749;28;20127;-71
2021/03/10 05:41:55;;;;;;;84.97;42.53;;;2.70;99.90;;;;;;5027057;28;20069;-70
2021/03/10 05:44:39;;;;;;;96.32;46.85;;;2.70;99.90;;;;;;5020272;28;20501;-70
2021/03/10 05:47:23;;;;;;;94.53;44.97;;;2.70;99.90;;;;;;5021547;28;20079;-70
2021/03/10 05:50:09;;;;;;;101.05;45.42;;;2.80;99.90;;;;;;5013442;28;20415;-70
2021/03/10 05:52:54;;;;;;;94.57;46.10;;;2.80;99.90;;;;;;5021959;28;20048;-70
2021/03/10 05:55:42;;;;;;;89.07;43.00;;;2.80;99.90;;;;;;5016107;28;20049;-70
2021/03/10 05:58:26;;;;;;;81.57;41.15;;;2.80;99.90;;;;;;5010768;28;20117;-70
2021/03/10 06:01:10;;;;;;;88.97;45.22;;;2.80;99.90;;;;;;5025682;28;20048;-70
2021/03/10 06:04:00;;;;;;;109.57;49.17;;;2.70;99.90;;;;;;5017066;28;20137;-70
2021/03/10 06:06:44;;;;;;;95.22;46.83;;;2.80;99.90;;;;;;5019914;28;20040;-70
2021/03/10 06:09:28;;;;;;;93.03;45.50;;;2.80;99.90;;;;;;5026137;28;20041;-70
2021/03/10 06:12:12;;;;;;;100.95;47.05;;;2.80;99.90;;;;;;5033531;28;20057;-70
2021/03/10 06:15:00;;;;;;;93.35;46.55;;;2.80;99.90;;;;;;5030846;28;20045;-70
2021/03/10 06:17:47;;;;;;;111.50;51.75;;;2.80;99.90;;;;;;5028058;28;20036;-71
2021/03/10 06:20:32;;;;;;;119.07;50.30;;;3.00;99.90;;;;;;5022857;28;20155;-70
2021/03/10 06:23:17;;;;;;;112.93;50.50;;;3.00;99.90;;;;;;5025432;28;20467;-69
2021/03/10 06:26:04;;;;;;;114.82;52.78;;;3.00;99.90;;;;;;5020977;28;20091;-70
2021/03/10 06:28:50;;;;;;;107.18;51.17;;;3.00;99.90;;;;;;5013963;28;20502;-70
2021/03/10 06:31:35;;;;;;;104.43;48.22;;;3.10;99.90;;;;;;5022684;28;20494;-70
2021/03/10 06:34:19;;;;;;;144.27;65.65;;;3.30;99.90;;;;;;5025669;28;20047;-70
2021/03/10 06:37:03;;;;;;;122.40;56.55;;;3.30;99.90;;;;;;5024123;28;20095;-70
2021/03/10 06:39:47;;;;;;;136.85;59.38;;;3.40;99.90;;;;;;5028474;28;20095;-70
2021/03/10 06:42:31;;;;;;;117.63;55.53;;;3.30;99.90;;;;;;5025541;28;20056;-70
2021/03/10 06:45:15;;;;;;;113.85;53.10;;;3.30;99.90;;;;;;5031122;28;20048;-70
2021/03/10 06:48:00;;;;;;;92.93;44.10;;;3.30;99.90;;;;;;5012570;28;20084;-70
2021/03/10 06:50:44;;;;;;;118.13;53.45;;;3.30;99.90;;;;;;5013632;28;20076;-70
2021/03/10 06:53:31;;;;;;;113.80;51.38;;;3.30;99.90;;;;;;5017854;28;20088;-70
2021/03/10 06:56:20;;;;;;;96.65;49.90;;;3.40;99.90;;;;;;5014162;28;20056;-71
2021/03/10 06:59:06;;;;;;;99.65;47.17;;;3.60;99.90;;;;;;5019167;28;20052;-70
2021/03/10 07:01:50;;;;;;;104.25;51.85;;;3.40;99.90;;;;;;5020952;28;20052;-70
2021/03/10 07:04:37;;;;;;;98.00;49.60;;;3.50;99.90;;;;;;5021170;28;20039;-70
2021/03/10 07:07:30;;;;;;;87.50;47.17;;;3.60;99.90;;;;;;5026423;28;20115;-70
2021/03/10 07:10:14;;;;;;;109.63;53.63;;;3.80;99.90;;;;;;5020291;28;20510;-69
2021/03/10 07:12:59;;;;;;;96.07;47.97;;;3.90;99.90;;;;;;5023970;28;20103;-70
2021/03/10 07:15:44;;;;;;;92.57;47.97;;;4.00;99.90;;;;;;5025497;28;20127;-69
2021/03/10 07:18:30;;;;;;;91.72;46.78;;;4.00;99.90;;;;;;5024081;28;20187;-71
2021/03/10 07:21:31;;;;;;;103.20;53.20;;;4.00;99.90;;;;;;5024066;28;20056;-70
2021/03/10 07:24:27;;;;;;;103.30;52.30;;;4.00;99.90;;;;;;5012445;28;20084;-71
2021/03/10 07:27:12;;;;;;;102.57;49.78;;;4.10;99.90;;;;;;5018043;28;20545;-70
2021/03/10 07:29:59;;;;;;;105.72;51.33;;;4.20;99.90;;;;;;5025553;28;20063;-71
2021/03/10 07:32:44;;;;;;;107.03;52.38;;;4.10;99.90;;;;;;5019403;28;20386;-70
2021/03/10 07:35:28;;;;;;;103.25;52.78;;;4.20;99.90;;;;;;5020558;28;20057;-71
2021/03/10 07:38:14;;;;;;;121.95;55.13;;;4.30;99.90;;;;;;5026907;28;20053;-70
2021/03/10 07:41:09;;;;;;;107.30;56.17;;;4.30;99.90;;;;;;5017147;28;20049;-70
2021/03/10 07:43:54;;;;;;;98.05;48.95;;;4.40;99.90;;;;;;5022472;28;20053;-70
2021/03/10 07:46:39;;;;;;;91.03;45.75;;;4.40;99.90;;;;;;5018843;28;20056;-70
2021/03/10 07:49:24;;;;;;;89.22;47.47;;;4.40;99.90;;;;;;5017237;28;20049;-71
2021/03/10 07:52:13;;;;;;;103.97;52.63;;;4.30;99.90;;;;;;5020934;28;20509;-70
2021/03/10 07:55:02;;;;;;;108.43;54.10;;;4.40;99.90;;;;;;5023086;28;20033;-70
2021/03/10 07:57:54;;;;;;;109.68;54.53;;;4.50;99.90;;;;;;5012165;28;20709;-70
2021/03/10 08:00:40;;;;;;;110.10;55.17;;;4.70;99.90;;;;;;5016807;28;20040;-70
2021/03/10 08:03:32;;;;;;;95.32;49.65;;;4.80;99.90;;;;;;5014425;28;20165;-70
2021/03/10 08:06:16;;;;;;;100.28;52.42;;;4.60;99.90;;;;;;5014730;28;20048;-69
2021/03/10 08:09:03;;;;;;;98.78;51.10;;;4.70;99.90;;;;;;5024175;28;20044;-70
2021/03/10 08:12:09;;;;;;;101.40;50.70;;;4.80;99.90;;;;;;5027076;28;20045;-70
2021/03/10 08:14:54;;;;;;;84.32;47.67;;;4.80;99.90;;;;;;5024894;28;20055;-71
2021/03/10 08:17:38;;;;;;;105.60;53.97;;;4.70;99.90;;;;;;5021879;28;20098;-71
2021/03/10 08:20:30;;;;;;;100.90;54.15;;;4.90;99.90;;;;;;5024554;28;20060;-70
2021/03/10 08:23:15;;;;;;;97.22;50.50;;;5.10;99.90;;;;;;5031120;28;20510;-70
2021/03/10 08:25:59;;;;;;;98.35;52.08;;;5.20;99.90;;;;;;5024792;28;20111;-72
2021/03/10 08:28:44;;;;;;;100.78;52.67;;;5.30;99.90;;;;;;5015618;28;20045;-71
2021/03/10 08:31:28;;;;;;;90.43;48.42;;;5.40;99.90;;;;;;5013789;28;20513;-70
2021/03/10 08:34:12;;;;;;;89.00;48.50;;;5.30;99.90;;;;;;5026717;28;20048;-70
2021/03/10 08:36:57;;;;;;;81.68;42.05;;;5.30;99.90;;;;;;5018325;28;20057;-70
2021/03/10 08:39:42;;;;;;;81.50;43.08;;;5.30;99.90;;;;;;5022074;28;20125;-70
2021/03/10 08:42:27;;;;;;;89.47;44.72;;;5.20;99.90;;;;;;5025676;28;20100;-70
2021/03/10 08:45:29;;;;;;;89.95;48.42;;;5.20;99.90;;;;;;5020454;28;20044;-70
2021/03/10 08:48:14;;;;;;;87.75;49.13;;;5.10;99.90;;;;;;5015338;28;20064;-70
2021/03/10 08:51:01;;;;;;;85.18;45.58;;;5.20;99.90;;;;;;5018700;28;20045;-70
2021/03/10 08:53:46;;;;;;;90.20;49.42;;;5.20;99.90;;;;;;5029363;28;20119;-70
2021/03/10 08:56:30;;;;;;;88.72;49.72;;;5.40;99.90;;;;;;5025854;28;20057;-70
2021/03/10 08:59:14;;;;;;;82.25;47.33;;;5.60;99.90;;;;;;5017273;28;20092;-70
2021/03/10 09:01:58;;;;;;;79.38;44.88;;;5.70;99.90;;;;;;5016128;28;20084;-71
2021/03/10 09:04:48;;;;;;;81.25;46.47;;;5.80;99.90;;;;;;5016552;28;20060;-70
2021/03/10 09:07:33;;;;;;;82.28;45.10;;;5.90;99.90;;;;;;5025177;28;20046;-70
2021/03/10 09:10:21;;;;;;;72.38;44.85;;;6.00;99.90;;;;;;5026343;28;20060;-70
2021/03/10 09:13:06;;;;;;;81.38;44.40;;;6.00;99.90;;;;;;5025310;28;20056;-70
2021/03/10 09:15:50;;;;;;;72.72;39.38;;;6.10;99.90;;;;;;5024362;28;20068;-70
2021/03/10 09:18:35;;;;;;;75.25;45.17;;;6.00;99.90;;;;;;5024531;28;20104;-71
2021/03/10 09:21:19;;;;;;;73.18;43.35;;;6.00;99.90;;;;;;5030936;28;20505;-71
2021/03/10 09:24:04;;;;;;;76.53;45.20;;;6.30;99.90;;;;;;5033130;28;20130;-70
2021/03/10 09:26:48;;;;;;;76.57;42.88;;;6.30;99.90;;;;;;5020319;28;20489;-71
2021/03/10 09:29:42;;;;;;;74.13;43.70;;;6.30;99.90;;;;;;5029618;28;20460;-70
2021/03/10 09:32:40;;;;;;;77.97;46.30;;;6.30;99.90;;;;;;5028696;28;20060;-70
2021/03/10 09:35:36;;;;;;;68.05;39.15;;;6.40;99.90;;;;;;5020544;28;20377;-70
2021/03/10 09:38:22;;;;;;;69.78;39.00;;;6.30;99.90;;;;;;5015811;28;20147;-70
2021/03/10 09:41:06;;;;;;;76.53;43.97;;;6.40;99.90;;;;;;5025820;28;20052;-71
2021/03/10 09:44:08;;;;;;;75.80;44.55;;;6.50;99.90;;;;;;5022688;28;20216;-71
2021/03/10 09:46:52;;;;;;;77.13;46.67;;;6.60;99.90;;;;;;5027113;28;20089;-70
2021/03/10 09:49:57;;;;;;;82.10;45.33;;;6.80;99.90;;;;;;5017121;28;20506;-70
2021/03/10 09:52:41;;;;;;;76.57;45.35;;;6.80;99.90;;;;;;5020511;28;20190;-69
2021/03/10 09:55:27;;;;;;;72.65;44.30;;;7.00;99.90;;;;;;5022287;28;20100;-70
2021/03/10 09:58:12;;;;;;;77.95;43.72;;;7.00;99.90;;;;;;5027083;28;20418;-70
2021/03/10 10:01:00;;;;;;;82.28;48.60;;;7.10;99.90;;;;;;5015167;28;20132;-70
2021/03/10 10:03:45;;;;;;;80.72;47.70;;;6.90;99.90;;;;;;5012191;28;20427;-70
2021/03/10 10:06:29;;;;;;;84.78;46.97;;;6.90;99.90;;;;;;5018814;28;20509;-70
2021/03/10 10:09:13;;;;;;;75.40;42.97;;;6.80;99.90;;;;;;5019266;28;20147;-71
2021/03/10 10:11:58;;;;;;;79.93;48.40;;;6.70;99.90;;;;;;5019161;28;20048;-70
2021/03/10 10:14:43;;;;;;;80.93;49.47;;;7.00;99.90;;;;;;5014541;28;20084;-70
2021/03/10 10:17:27;;;;;;;79.90;46.28;;;7.10;99.90;;;;;;5023691;28;20049;-70
2021/03/10 10:20:13;;;;;;;82.65;49.25;;;7.40;99.90;;;;;;5015505;28;20085;-70
2021/03/10 10:22:57;;;;;;;77.38;46.92;;;7.30;99.90;;;;;;5018017;28;20847;-70
2021/03/10 10:25:41;;;;;;;88.68;51.88;;;7.20;99.90;;;;;;5020733;28;20128;-70
2021/03/10 10:28:26;;;;;;;91.15;51.83;;;7.30;99.90;;;;;;5029462;28;20175;-70
2021/03/10 10:31:10;;;;;;;75.82;43.97;;;7.70;99.90;;;;;;5025537;28;20048;-70
2021/03/10 10:33:55;;;;;;;66.00;40.35;;;7.60;99.90;;;;;;5020670;28;20513;-70
2021/03/10 10:36:39;;;;;;;76.88;47.28;;;7.50;99.90;;;;;;5030348;28;20414;-70
2021/03/10 10:39:24;;;;;;;76.75;46.53;;;7.60;99.90;;;;;;5011386;28;20049;-70
2021/03/10 10:42:08;;;;;;;74.22;46.25;;;7.90;99.90;;;;;;5023737;28;20060;-70
2021/03/10 10:44:52;;;;;;;75.15;44.35;;;8.20;99.90;;;;;;5018433;28;20099;-70
2021/03/10 10:47:37;;;;;;;69.25;42.78;;;8.30;99.90;;;;;;5011136;28;20291;-70
2021/03/10 10:50:22;;;;;;;64.85;42.88;;;8.30;99.90;;;;;;5012390;28;20055;-70
2021/03/10 10:53:06;;;;;;;66.10;43.97;;;8.60;99.90;;;;;;5014159;28;20119;-70
2021/03/10 10:55:50;;;;;;;65.57;42.90;;;8.40;99.90;;;;;;5027546;28;20076;-70
2021/03/10 10:58:34;;;;;;;69.75;42.92;;;8.50;99.90;;;;;;5022889;28;20116;-70
2021/03/10 11:01:19;;;;;;;59.90;35.92;;;8.30;99.90;;;;;;5010168;28;20060;-70
2021/03/10 11:04:03;;;;;;;54.90;36.53;;;8.20;99.90;;;;;;5014788;28;20493;-70
2021/03/10 11:06:48;;;;;;;64.72;39.33;;;8.40;99.90;;;;;;5021090;28;20056;-71
2021/03/10 11:09:36;;;;;;;64.28;38.17;;;8.30;99.90;;;;;;5028686;28;20125;-71
2021/03/10 11:12:21;;;;;;;52.28;34.40;;;8.50;99.90;;;;;;5017251;28;20048;-70
2021/03/10 11:15:07;;;;;;;54.13;33.63;;;8.80;99.90;;;;;;5027464;28;20107;-70
2021/03/10 11:17:52;;;;;;;48.63;30.75;;;9.00;99.90;;;;;;5017019;28;20156;-70
2021/03/10 11:20:36;;;;;;;52.42;33.13;;;9.10;99.90;;;;;;5010752;28;20513;-70
2021/03/10 11:23:20;;;;;;;48.90;29.73;;;9.00;99.90;;;;;;5016374;28;20080;-71
2021/03/10 11:26:04;;;;;;;47.60;31.83;;;9.20;99.90;;;;;;5013728;28;20104;-71
2021/03/10 11:28:48;;;;;;;49.85;31.92;;;9.40;99.90;;;;;;5019841;28;20144;-70
2021/03/10 11:31:32;;;;;;;49.78;32.05;;;9.10;99.90;;;;;;5007319;28;20478;-70
2021/03/10 11:34:16;;;;;;;50.05;32.35;;;9.20;99.90;;;;;;5016808;28;20451;-70
2021/03/10 11:37:02;;;;;;;45.92;30.13;;;9.70;99.90;;;;;;5025437;28;20095;-70
2021/03/10 11:39:46;;;;;;;49.72;31.48;;;9.80;99.90;;;;;;5018739;28;20457;-70
2021/03/10 11:42:30;;;;;;;49.88;29.90;;;9.70;99.90;;;;;;5017207;28;20052;-69
2021/03/10 11:45:15;;;;;;;51.38;27.75;;;9.70;99.90;;;;;;5016332;28;20418;-70
2021/03/10 11:48:00;;;;;;;42.47;27.15;;;9.70;99.90;;;;;;5019977;28;20045;-70
2021/03/10 11:50:44;;;;;;;47.58;28.10;;;9.30;99.90;;;;;;5015762;28;20111;-70
2021/03/10 11:53:28;;;;;;;51.63;27.30;;;9.50;99.90;;;;;;5010882;28;20510;-70
2021/03/10 11:56:13;;;;;;;38.15;24.70;;;9.80;99.90;;;;;;5020573;28;20045;-70
2021/03/10 11:58:57;;;;;;;40.75;25.60;;;10.10;99.90;;;;;;5016620;28;20111;-70
2021/03/10 12:01:41;;;;;;;41.92;26.60;;;10.10;99.90;;;;;;5014141;28;20081;-70
2021/03/10 12:04:26;;;;;;;39.35;24.10;;;10.40;99.90;;;;;;5009120;28;21723;-70
2021/03/10 12:07:10;;;;;;;33.22;22.27;;;10.40;99.90;;;;;;5022448;28;20048;-70
2021/03/10 12:09:54;;;;;;;36.42;23.05;;;10.50;99.90;;;;;;5012838;28;20061;-70
2021/03/10 12:12:39;;;;;;;37.45;24.00;;;10.50;99.90;;;;;;5012048;28;20053;-70
2021/03/10 12:15:23;;;;;;;35.58;23.95;;;10.00;99.90;;;;;;5013975;28;20048;-70
2021/03/10 12:18:07;;;;;;;36.45;23.75;;;9.80;99.90;;;;;;5026045;28;20073;-70
2021/03/10 12:20:51;;;;;;;35.80;20.92;;;9.80;99.90;;;;;;5021814;28;20091;-71
2021/03/10 12:23:36;;;;;;;39.78;23.70;;;9.30;99.90;;;;;;5015306;28;20052;-72
2021/03/10 12:26:20;;;;;;;31.27;19.52;;;9.50;99.90;;;;;;5018352;28;20136;-70
2021/03/10 12:29:05;;;;;;;34.10;22.17;;;9.80;99.90;;;;;;5019132;28;20510;-69
2021/03/10 12:31:49;;;;;;;36.08;23.25;;;10.10;99.90;;;;;;5024629;28;20037;-69
2021/03/10 12:34:33;;;;;;;31.75;19.67;;;10.30;99.90;;;;;;5022036;28;20068;-70
2021/03/10 12:37:17;;;;;;;26.83;17.33;;;10.60;99.90;;;;;;5021753;28;20095;-69
2021/03/10 12:40:03;;;;;;;26.45;15.60;;;10.70;99.90;;;;;;5026514;28;20056;-69
2021/03/10 12:42:48;;;;;;;27.40;17.00;;;10.40;99.90;;;;;;5026014;28;20056;-68
2021/03/10 12:45:32;;;;;;;30.33;20.40;;;10.50;99.90;;;;;;5026176;28;20076;-69
2021/03/10 12:48:16;;;;;;;31.02;19.55;;;10.90;99.90;;;;;;5018613;28;20494;-69
2021/03/10 12:51:00;;;;;;;33.30;20.83;;;11.40;99.90;;;;;;5024720;28;20087;-69
2021/03/10 12:53:45;;;;;;;30.27;19.58;;;11.30;99.90;;;;;;5013520;28;20447;-69
2021/03/10 12:56:29;;;;;;;28.23;17.60;;;11.00;99.90;;;;;;5018009;28;20052;-69
2021/03/10 12:59:14;;;;;;;30.58;20.30;;;10.50;99.90;;;;;;5030428;28;20053;-69
2021/03/10 13:01:58;;;;;;;26.75;17.48;;;10.40;99.90;;;;;;5028863;28;20054;-68
2021/03/10 13:04:43;;;;;;;28.73;18.33;;;10.50;99.90;;;;;;5020635;28;20072;-69
2021/03/10 13:07:27;;;;;;;26.25;17.08;;;10.50;99.90;;;;;;5017081;28;20041;-69
2021/03/10 13:10:12;;;;;;;29.02;17.98;;;10.50;99.90;;;;;;5012684;28;20108;-69
2021/03/10 13:12:57;;;;;;;31.50;18.52;;;10.50;99.90;;;;;;5017361;28;20053;-69
2021/03/10 13:15:41;;;;;;;31.55;20.25;;;10.40;99.90;;;;;;5027368;28;20126;-69
2021/03/10 13:18:26;;;;;;;31.10;20.30;;;10.30;99.90;;;;;;5025061;28;20045;-69
2021/03/10 13:21:10;;;;;;;29.30;20.13;;;10.40;99.90;;;;;;5017281;28;20525;-69
2021/03/10 13:23:54;;;;;;;30.02;19.25;;;10.80;99.90;;;;;;5019725;28;20044;-70
2021/03/10 13:26:40;;;;;;;38.42;19.52;;;10.90;99.90;;;;;;5016150;28;20081;-69
2021/03/10 13:29:24;;;;;;;33.47;19.95;;;10.40;99.90;;;;;;5023111;28;20513;-69
2021/03/10 13:32:08;;;;;;;29.85;20.45;;;10.00;99.90;;;;;;5018556;28;20456;-69
2021/03/10 13:34:53;;;;;;;29.80;19.42;;;9.70;99.90;;;;;;5013630;28;20080;-69
2021/03/10 13:37:37;;;;;;;29.17;19.55;;;9.60;99.90;;;;;;5019927;28;20041;-69
2021/03/10 13:40:22;;;;;;;32.67;19.90;;;9.70;99.90;;;;;;5012335;28;20052;-69
2021/03/10 13:43:06;;;;;;;29.98;19.77;;;9.90;99.90;;;;;;5023806;28;20443;-69
2021/03/10 13:45:52;;;;;;;26.45;15.10;;;10.20;99.90;;;;;;5028373;28;20049;-70
2021/03/10 13:48:36;;;;;;;27.00;16.60;;;10.40;99.90;;;;;;5023976;28;20067;-70
2021/03/10 13:51:21;;;;;;;30.35;18.73;;;10.30;99.90;;;;;;5020620;28;20071;-69
2021/03/10 13:54:05;;;;;;;28.77;18.45;;;10.20;99.90;;;;;;5011561;28;20116;-69
2021/03/10 13:56:49;;;;;;;25.70;15.57;;;11.30;99.90;;;;;;5025560;28;20248;-69
2021/03/10 13:59:33;;;;;;;24.35;17.63;;;11.60;99.90;;;;;;5021911;28;20045;-69
2021/03/10 14:02:18;;;;;;;26.45;17.45;;;11.80;99.90;;;;;;5022231;28;20052;-69
2021/03/10 14:05:02;;;;;;;28.45;17.58;;;11.10;99.90;;;;;;5025837;28;20095;-69
2021/03/10 14:07:47;;;;;;;25.77;18.08;;;11.60;99.90;;;;;;5023367;28;20139;-68